Time,TemperatureF,DewpointF,PressureIn,WindDirection,WindDirectionDegrees,WindSpeedMPH,WindSpeedGustMPH,Humidity,HourlyPrecipIn,Conditions,Clouds,dailyrainin,SolarRadiationWatts/m^2,SoftwareType,DateUTC
2013-05-08 00:03:00,58.7,53.5,30.07,NNW,333,0.0,1.0,83,0.00,,,0.00,0,Wunderground v.1.15,2013-05-08 05:03:00,
2013-05-08 00:13:00,59.4,53.9,30.07,NNW,333,0.0,1.0,82,0.00,,,0.00,0,Wunderground v.1.15,2013-05-08 05:13:00,
2013-05-08 00:18:00,59.4,53.9,30.07,NNW,333,0.0,0.0,82,0.00,,,0.00,0,Wunderground v.1.15,2013-05-08 05:18:00,
2013-05-08 00:28:00,57.7,53.2,30.07,NNW,333,0.0,0.0,85,0.00,,,0.00,0,Wunderground v.1.15,2013-05-08 05:28:00,
2013-05-08 00:38:00,57.6,53.8,30.07,NNW,333,0.0,0.0,87,0.00,,,0.00,0,Wunderground v.1.15,2013-05-08 05:38:00,
2013-05-08 00:43:00,57.8,53.6,30.07,NNW,333,0.0,0.0,86,0.00,,,0.00,0,Wunderground v.1.15,2013-05-08 05:43:00,
2013-05-08 00:48:00,57.9,53.7,30.07,NNW,333,0.0,0.0,86,0.00,,,0.00,0,Wunderground v.1.15,2013-05-08 05:48:00,
2013-05-08 00:58:00,58.8,53.6,30.07,NNW,333,0.0,0.0,83,0.00,,,0.00,0,Wunderground v.1.15,2013-05-08 05:58:00,
2013-05-08 01:08:00,57.7,53.2,30.07,NNW,333,0.0,0.0,85,0.00,,,0.00,0,Wunderground v.1.15,2013-05-08 06:08:00,
2013-05-08 01:13:00,57.8,53.6,30.07,NNW,333,0.0,0.0,86,0.00,,,0.00,0,Wunderground v.1.15,2013-05-08 06:13:00,
2013-05-08 01:23:00,58.1,53.6,30.06,NNW,333,0.0,0.0,85,0.00,,,0.00,0,Wunderground v.1.15,2013-05-08 06:23:00,
2013-05-08 01:33:00,57.2,53.4,30.06,NNW,333,0.0,0.0,87,0.00,,,0.00,0,Wunderground v.1.15,2013-05-08 06:33:00,
2013-05-08 01:43:00,56.2,53.0,30.06,NNW,333,0.0,0.0,89,0.00,,,0.00,0,Wunderground v.1.15,2013-05-08 06:43:00,
2013-05-08 01:48:00,56.1,52.9,30.06,NNW,333,0.0,0.0,89,0.00,,,0.00,0,Wunderground v.1.15,2013-05-08 06:48:00,
2013-05-08 01:58:00,56.4,53.2,30.05,NNW,333,0.0,0.0,89,0.00,,,0.00,0,Wunderground v.1.15,2013-05-08 06:58:00,
2013-05-08 02:08:00,55.5,52.0,30.06,NNW,333,0.0,0.0,88,0.00,,,0.00,0,Wunderground v.1.15,2013-05-08 07:08:00,
2013-05-08 02:18:00,55.2,52.6,30.06,NNW,333,0.0,2.0,91,0.00,,,0.00,0,Wunderground v.1.15,2013-05-08 07:18:00,
2013-05-08 02:27:00,56.2,53.3,30.06,NNW,333,2.0,2.0,90,0.00,,,0.00,0,Wunderground v.1.15,2013-05-08 07:27:00,
2013-05-08 02:33:00,56.4,53.2,30.06,NNW,333,2.0,2.0,89,0.00,,,0.00,0,Wunderground v.1.15,2013-05-08 07:33:00,
2013-05-08 02:43:00,56.6,53.1,30.06,NNW,333,1.0,1.0,88,0.00,,,0.00,0,Wunderground v.1.15,2013-05-08 07:43:00,
2013-05-08 02:48:00,56.5,53.0,30.06,NNW,333,1.0,1.0,88,0.00,,,0.00,0,Wunderground v.1.15,2013-05-08 07:48:00,
2013-05-08 02:58:00,56.4,52.6,30.06,NNW,333,1.0,1.0,87,0.00,,,0.00,0,Wunderground v.1.15,2013-05-08 07:58:00,
2013-05-08 03:07:00,55.9,52.4,30.06,NNW,333,0.0,0.0,88,0.00,,,0.00,0,Wunderground v.1.15,2013-05-08 08:07:00,
2013-05-08 03:17:00,55.2,52.0,30.05,NNW,333,0.0,0.0,89,0.00,,,0.00,0,Wunderground v.1.15,2013-05-08 08:17:00,
2013-05-08 03:23:00,55.0,51.8,30.05,NNW,333,0.0,0.0,89,0.00,,,0.00,0,Wunderground v.1.15,2013-05-08 08:23:00,
2013-05-08 03:32:00,55.0,52.1,30.05,NNW,333,0.0,0.0,90,0.00,,,0.00,0,Wunderground v.1.15,2013-05-08 08:32:00,
2013-05-08 03:42:00,54.0,50.8,30.05,NNW,333,0.0,0.0,89,0.00,,,0.00,0,Wunderground v.1.15,2013-05-08 08:42:00,
2013-05-08 03:52:00,53.5,50.9,30.05,NNW,333,0.0,0.0,91,0.00,,,0.00,0,Wunderground v.1.15,2013-05-08 08:52:00,
2013-05-08 03:57:00,53.4,50.8,30.05,NNW,333,0.0,0.0,91,0.00,,,0.00,0,Wunderground v.1.15,2013-05-08 08:57:00,
2013-05-08 04:07:00,53.1,50.8,30.05,NNW,333,0.0,0.0,92,0.00,,,0.00,0,Wunderground v.1.15,2013-05-08 09:07:00,
2013-05-08 04:12:00,53.2,50.9,30.05,NNW,333,0.0,1.0,92,0.00,,,0.00,0,Wunderground v.1.15,2013-05-08 09:12:00,
2013-05-08 04:22:00,53.3,51.0,30.05,NNW,333,0.0,0.0,92,0.00,,,0.00,0,Wunderground v.1.15,2013-05-08 09:22:00,
2013-05-08 04:32:00,53.2,50.6,30.05,NNW,333,0.0,0.0,91,0.00,,,0.00,0,Wunderground v.1.15,2013-05-08 09:32:00,
2013-05-08 04:37:00,53.0,50.4,30.05,NNW,333,0.0,0.0,91,0.00,,,0.00,0,Wunderground v.1.15,2013-05-08 09:37:00,
2013-05-08 04:47:00,53.3,51.0,30.05,NNW,333,0.0,0.0,92,0.00,,,0.00,0,Wunderground v.1.15,2013-05-08 09:47:00,
2013-05-08 04:57:00,53.0,50.7,30.05,NNW,333,0.0,0.0,92,0.00,,,0.00,0,Wunderground v.1.15,2013-05-08 09:57:00,
2013-05-08 05:07:00,52.7,50.7,30.05,NNW,333,0.0,0.0,93,0.00,,,0.00,0,Wunderground v.1.15,2013-05-08 10:07:00,
2013-05-08 05:12:00,52.7,50.7,30.05,NNW,333,0.0,0.0,93,0.00,,,0.00,0,Wunderground v.1.15,2013-05-08 10:12:00,
2013-05-08 05:17:00,52.7,50.4,30.05,NNW,333,0.0,0.0,92,0.00,,,0.00,0,Wunderground v.1.15,2013-05-08 10:17:00,
2013-05-08 05:27:00,52.5,50.2,30.06,NNW,333,0.0,0.0,92,0.00,,,0.00,0,Wunderground v.1.15,2013-05-08 10:27:00,
2013-05-08 05:37:00,52.4,50.4,30.06,NNW,333,0.0,0.0,93,0.00,,,0.00,0,Wunderground v.1.15,2013-05-08 10:37:00,
2013-05-08 05:42:00,52.3,50.3,30.06,NNW,333,0.0,0.0,93,0.00,,,0.00,0,Wunderground v.1.15,2013-05-08 10:42:00,
2013-05-08 05:52:00,52.3,50.6,30.06,NNW,333,0.0,0.0,94,0.00,,,0.00,0,Wunderground v.1.15,2013-05-08 10:52:00,
2013-05-08 06:02:00,52.3,50.6,30.07,NNW,333,0.0,0.0,94,0.00,,,0.00,0,Wunderground v.1.15,2013-05-08 11:02:00,
2013-05-08 06:12:00,52.1,50.1,30.07,NNW,333,0.0,0.0,93,0.00,,,0.00,7,Wunderground v.1.15,2013-05-08 11:12:00,
2013-05-08 06:17:00,52.3,50.6,30.07,NNW,333,0.0,0.0,94,0.00,,,0.00,11,Wunderground v.1.15,2013-05-08 11:17:00,
2013-05-08 06:23:00,52.8,50.8,30.07,NNW,333,0.0,0.0,93,0.00,,,0.00,11,Wunderground v.1.15,2013-05-08 11:23:00,
2013-05-08 06:28:00,53.3,51.3,30.07,NNW,333,0.0,0.0,93,0.00,,,0.00,12,Wunderground v.1.15,2013-05-08 11:28:00,
2013-05-08 06:38:00,53.8,51.2,30.08,NNW,333,0.0,0.0,91,0.00,,,0.00,23,Wunderground v.1.15,2013-05-08 11:38:00,
2013-05-08 06:48:00,53.7,51.4,30.08,NNW,333,0.0,0.0,92,0.00,,,0.00,23,Wunderground v.1.15,2013-05-08 11:48:00,
2013-05-08 06:53:00,53.8,51.5,30.08,NNW,333,0.0,0.0,92,0.00,,,0.00,25,Wunderground v.1.15,2013-05-08 11:53:00,
2013-05-08 07:03:00,54.4,52.1,30.08,NNW,333,0.0,1.0,92,0.00,,,0.00,35,Wunderground v.1.15,2013-05-08 12:03:00,
2013-05-08 07:08:00,54.8,52.2,30.08,NNW,333,0.0,0.0,91,0.00,,,0.00,70,Wunderground v.1.15,2013-05-08 12:08:00,
2013-05-08 07:13:00,55.2,52.3,30.08,NNW,333,0.0,1.0,90,0.00,,,0.00,51,Wunderground v.1.15,2013-05-08 12:13:00,
2013-05-08 07:23:00,55.5,52.3,30.08,NNW,333,0.0,0.0,89,0.00,,,0.00,69,Wunderground v.1.15,2013-05-08 12:23:00,
2013-05-08 07:33:00,56.1,52.6,30.08,NNW,333,0.0,0.0,88,0.00,,,0.00,86,Wunderground v.1.15,2013-05-08 12:33:00,
2013-05-08 07:38:00,56.3,52.8,30.09,NNW,333,0.0,0.0,88,0.00,,,0.00,111,Wunderground v.1.15,2013-05-08 12:38:00,
2013-05-08 07:48:00,57.2,53.7,30.09,NNW,333,0.0,0.0,88,0.00,,,0.00,269,Wunderground v.1.15,2013-05-08 12:48:00,
2013-05-08 07:53:00,58.1,53.9,30.09,NNW,333,0.0,0.0,86,0.00,,,0.00,267,Wunderground v.1.15,2013-05-08 12:53:00,
2013-05-08 08:03:00,59.7,54.5,30.09,NNW,333,0.0,0.0,83,0.00,,,0.00,294,Wunderground v.1.15,2013-05-08 13:03:00,
2013-05-08 08:13:00,60.5,54.6,30.09,NNW,333,1.0,2.0,81,0.00,,,0.00,334,Wunderground v.1.15,2013-05-08 13:13:00,
2013-05-08 08:18:00,61.1,54.5,30.09,NNW,332,1.0,3.0,79,0.00,,,0.00,352,Wunderground v.1.15,2013-05-08 13:18:00,
2013-05-08 08:28:00,62.3,55.4,30.09,West,272,3.0,3.0,78,0.00,,,0.00,383,Wunderground v.1.15,2013-05-08 13:28:00,
2013-05-08 08:38:00,64.0,55.9,30.09,SSW,211,3.0,3.0,75,0.00,,,0.00,432,Wunderground v.1.15,2013-05-08 13:38:00,
2013-05-08 08:43:00,65.1,57.0,30.09,SSW,194,3.0,4.0,75,0.00,,,0.00,487,Wunderground v.1.15,2013-05-08 13:43:00,
2013-05-08 08:53:00,66.9,57.2,30.09,SW,220,5.0,5.0,71,0.00,,,0.00,364,Wunderground v.1.15,2013-05-08 13:53:00,
2013-05-08 09:03:00,67.7,57.2,30.09,SW,217,5.0,6.0,69,0.00,,,0.00,452,Wunderground v.1.15,2013-05-08 14:03:00,
2013-05-08 09:13:00,68.5,57.5,30.09,SSW,211,6.0,6.0,68,0.00,,,0.00,401,Wunderground v.1.15,2013-05-08 14:13:00,
2013-05-08 09:18:00,69.0,56.7,30.10,SW,222,5.0,5.0,65,0.00,,,0.00,329,Wunderground v.1.15,2013-05-08 14:18:00,
2013-05-08 09:28:00,69.0,56.7,30.10,SSW,212,3.0,7.0,65,0.00,,,0.00,295,Wunderground v.1.15,2013-05-08 14:28:00,
2013-05-08 09:38:00,69.2,56.5,30.10,SW,223,4.0,5.0,64,0.00,,,0.00,355,Wunderground v.1.15,2013-05-08 14:38:00,
2013-05-08 09:43:00,69.1,56.4,30.10,SSW,198,5.0,5.0,64,0.00,,,0.00,315,Wunderground v.1.15,2013-05-08 14:43:00,
2013-05-08 09:53:00,69.0,57.2,30.10,SW,217,5.0,6.0,66,0.00,,,0.00,325,Wunderground v.1.15,2013-05-08 14:53:00,
2013-05-08 10:03:00,69.1,57.7,30.10,SW,215,5.0,6.0,67,0.00,,,0.00,388,Wunderground v.1.15,2013-05-08 15:03:00,
2013-05-08 10:08:00,68.7,56.9,30.10,SW,222,5.0,7.0,66,0.00,,,0.00,464,Wunderground v.1.15,2013-05-08 15:08:00,
2013-05-08 10:18:00,68.3,56.9,30.10,SW,226,7.0,7.0,67,0.00,,,0.00,547,Wunderground v.1.15,2013-05-08 15:18:00,
2013-05-08 10:28:00,68.9,58.3,30.10,SW,223,7.0,7.0,69,0.00,,,0.00,601,Wunderground v.1.15,2013-05-08 15:28:00,
2013-05-08 10:33:00,69.8,58.3,30.11,SW,215,7.0,7.0,67,0.00,,,0.00,682,Wunderground v.1.15,2013-05-08 15:33:00,
2013-05-08 10:43:00,70.0,57.7,30.11,SSW,211,9.0,9.0,65,0.00,,,0.00,445,Wunderground v.1.15,2013-05-08 15:43:00,
2013-05-08 10:52:00,69.4,58.0,30.11,WSW,257,10.0,12.0,67,0.00,,,0.00,563,Wunderground v.1.15,2013-05-08 15:52:00,
2013-05-08 11:02:00,70.8,58.9,30.11,WSW,239,7.0,8.0,66,0.00,,,0.00,485,Wunderground v.1.15,2013-05-08 16:02:00,
2013-05-08 11:08:00,71.1,58.3,30.11,SSW,198,8.0,8.0,64,0.00,,,0.00,466,Wunderground v.1.15,2013-05-08 16:08:00,
2013-05-08 11:17:00,70.5,58.2,30.12,SW,214,10.0,12.0,65,0.00,,,0.00,341,Wunderground v.1.15,2013-05-08 16:17:00,
2013-05-08 11:27:00,69.7,58.7,30.12,SW,227,9.0,9.0,68,0.00,,,0.00,578,Wunderground v.1.15,2013-05-08 16:27:00,
2013-05-08 11:33:00,69.9,58.4,30.12,SW,218,9.0,17.0,67,0.00,,,0.00,418,Wunderground v.1.15,2013-05-08 16:33:00,
2013-05-08 11:42:00,69.6,57.3,30.12,SSW,202,9.0,11.0,65,0.00,,,0.00,438,Wunderground v.1.15,2013-05-08 16:42:00,
2013-05-08 11:52:00,69.6,58.2,30.12,SW,234,8.0,11.0,67,0.00,,,0.00,490,Wunderground v.1.15,2013-05-08 16:52:00,
2013-05-08 11:58:00,69.4,58.0,30.12,SW,219,9.0,9.0,67,0.00,,,0.00,480,Wunderground v.1.15,2013-05-08 16:58:00,
2013-05-08 12:07:00,69.4,56.7,30.12,SW,233,10.0,10.0,64,0.00,,,0.00,482,Wunderground v.1.15,2013-05-08 17:07:00,
2013-05-08 12:17:00,68.7,56.9,30.11,South,191,10.0,10.0,66,0.00,,,0.00,341,Wunderground v.1.15,2013-05-08 17:17:00,
2013-05-08 12:27:00,68.4,57.0,30.11,SW,215,10.0,17.0,67,0.00,,,0.00,438,Wunderground v.1.15,2013-05-08 17:27:00,
2013-05-08 12:37:00,67.5,57.4,30.11,SSW,207,11.0,11.0,70,0.00,,,0.00,325,Wunderground v.1.15,2013-05-08 17:37:00,
2013-05-08 12:47:00,67.3,57.2,30.11,SW,230,10.0,12.0,70,0.00,,,0.00,468,Wunderground v.1.15,2013-05-08 17:47:00,
2013-05-08 12:52:00,67.5,57.4,30.11,SW,220,10.0,17.0,70,0.00,,,0.00,355,Wunderground v.1.15,2013-05-08 17:52:00,
2013-05-08 13:02:00,67.0,58.4,30.10,SSW,208,8.0,10.0,74,0.00,,,0.00,265,Wunderground v.1.15,2013-05-08 18:02:00,
2013-05-08 13:12:00,66.3,57.4,30.10,SW,220,7.0,12.0,73,0.00,,,0.00,234,Wunderground v.1.15,2013-05-08 18:12:00,
2013-05-08 13:17:00,66.1,57.6,30.10,South,175,8.0,8.0,74,0.00,,,0.00,243,Wunderground v.1.15,2013-05-08 18:17:00,
2013-05-08 13:27:00,66.1,57.9,30.09,SSW,213,9.0,15.0,75,0.00,,,0.00,364,Wunderground v.1.15,2013-05-08 18:27:00,
2013-05-08 13:37:00,66.2,58.0,30.09,SSW,200,9.0,13.0,75,0.00,,,0.00,359,Wunderground v.1.15,2013-05-08 18:37:00,
2013-05-08 13:47:00,65.6,57.5,30.09,SSW,205,9.0,9.0,75,0.00,,,0.00,221,Wunderground v.1.15,2013-05-08 18:47:00,
2013-05-08 13:57:00,65.2,57.4,30.08,SSE,163,6.0,7.0,76,0.00,,,0.00,292,Wunderground v.1.15,2013-05-08 18:57:00,
2013-05-08 14:02:00,65.5,57.7,30.08,South,190,6.0,7.0,76,0.00,,,0.00,675,Wunderground v.1.15,2013-05-08 19:02:00,
2013-05-08 14:12:00,66.9,58.3,30.08,South,180,6.0,9.0,74,0.00,,,0.00,454,Wunderground v.1.15,2013-05-08 19:12:00,
2013-05-08 14:23:00,67.7,58.7,30.07,SSE,161,5.0,7.0,73,0.00,,,0.00,555,Wunderground v.1.15,2013-05-08 19:23:00,
2013-05-08 14:28:00,67.7,58.3,30.07,SSE,161,4.0,5.0,72,0.00,,,0.00,445,Wunderground v.1.15,2013-05-08 19:28:00,
2013-05-08 14:38:00,67.9,58.5,30.07,SSE,164,4.0,4.0,72,0.00,,,0.00,501,Wunderground v.1.15,2013-05-08 19:38:00,
2013-05-08 14:43:00,68.6,58.8,30.07,South,169,4.0,4.0,71,0.00,,,0.00,397,Wunderground v.1.15,2013-05-08 19:43:00,
2013-05-08 14:53:00,68.7,58.5,30.07,SSW,205,4.0,5.0,70,0.00,,,0.00,512,Wunderground v.1.15,2013-05-08 19:53:00,
2013-05-08 15:03:00,70.5,59.0,30.07,SSW,205,6.0,11.0,67,0.00,,,0.00,545,Wunderground v.1.15,2013-05-08 20:03:00,
2013-05-08 15:13:00,71.9,59.1,30.07,SSW,194,6.0,7.0,64,0.00,,,0.00,807,Wunderground v.1.15,2013-05-08 20:13:00,
2013-05-08 15:18:00,72.2,58.0,30.07,SE,143,6.0,8.0,61,0.00,,,0.00,656,Wunderground v.1.15,2013-05-08 20:18:00,
2013-05-08 15:28:00,71.6,57.9,30.07,SSW,211,6.0,6.0,62,0.00,,,0.00,436,Wunderground v.1.15,2013-05-08 20:28:00,
2013-05-08 15:38:00,71.6,57.9,30.06,SSE,153,5.0,5.0,62,0.00,,,0.00,434,Wunderground v.1.15,2013-05-08 20:38:00,
2013-05-08 15:43:00,71.7,57.5,30.06,SSW,213,7.0,9.0,61,0.00,,,0.00,578,Wunderground v.1.15,2013-05-08 20:43:00,
2013-05-08 15:53:00,71.6,57.9,30.07,SW,216,7.0,8.0,62,0.00,,,0.00,339,Wunderground v.1.15,2013-05-08 20:53:00,
2013-05-08 15:58:00,71.5,57.8,30.06,SW,232,6.0,12.0,62,0.00,,,0.00,360,Wunderground v.1.15,2013-05-08 20:58:00,
2013-05-08 16:08:00,70.8,57.6,30.06,SSE,150,7.0,7.0,63,0.00,,,0.00,316,Wunderground v.1.15,2013-05-08 21:08:00,
2013-05-08 16:13:00,70.6,58.7,30.05,South,187,5.0,7.0,66,0.00,,,0.00,309,Wunderground v.1.15,2013-05-08 21:13:00,
2013-05-08 16:18:00,70.6,58.3,30.05,SSE,154,4.0,6.0,65,0.00,,,0.00,341,Wunderground v.1.15,2013-05-08 21:18:00,
2013-05-08 16:28:00,71.4,58.6,30.04,SE,144,5.0,5.0,64,0.00,,,0.00,608,Wunderground v.1.15,2013-05-08 21:28:00,
2013-05-08 16:33:00,71.9,58.6,30.04,SE,134,5.0,7.0,63,0.00,,,0.00,708,Wunderground v.1.15,2013-05-08 21:33:00,
2013-05-08 16:43:00,72.2,58.9,30.04,SSW,205,5.0,6.0,63,0.00,,,0.00,506,Wunderground v.1.15,2013-05-08 21:43:00,
2013-05-08 16:48:00,71.8,58.1,30.04,SE,145,5.0,8.0,62,0.00,,,0.00,571,Wunderground v.1.15,2013-05-08 21:48:00,
2013-05-08 16:58:00,72.0,57.8,30.04,SSW,192,6.0,6.0,61,0.00,,,0.00,510,Wunderground v.1.15,2013-05-08 21:58:00,
2013-05-08 17:08:00,72.0,57.8,30.04,South,188,6.0,7.0,61,0.00,,,0.00,418,Wunderground v.1.15,2013-05-08 22:08:00,
2013-05-08 17:13:00,72.0,59.2,30.03,SSE,150,6.0,7.0,64,0.00,,,0.00,355,Wunderground v.1.15,2013-05-08 22:13:00,
2013-05-08 17:23:00,71.5,58.7,30.03,South,175,4.0,5.0,64,0.00,,,0.00,234,Wunderground v.1.15,2013-05-08 22:23:00,
2013-05-08 17:33:00,71.5,58.7,30.03,SSE,157,3.0,4.0,64,0.00,,,0.00,218,Wunderground v.1.15,2013-05-08 22:33:00,
2013-05-08 17:43:00,71.5,59.1,30.03,South,171,5.0,5.0,65,0.00,,,0.00,237,Wunderground v.1.15,2013-05-08 22:43:00,
2013-05-08 17:53:00,71.5,59.1,30.03,SSE,167,2.0,3.0,65,0.00,,,0.00,207,Wunderground v.1.15,2013-05-08 22:53:00,
2013-05-08 17:58:00,71.5,59.1,30.02,South,186,2.0,2.0,65,0.00,,,0.00,199,Wunderground v.1.15,2013-05-08 22:58:00,
2013-05-08 18:08:00,71.7,59.3,30.02,SE,144,3.0,3.0,65,0.00,,,0.00,202,Wunderground v.1.15,2013-05-08 23:08:00,
2013-05-08 18:18:00,71.6,59.6,30.02,SSE,153,3.0,3.0,66,0.00,,,0.00,225,Wunderground v.1.15,2013-05-08 23:18:00,
2013-05-08 18:23:00,71.7,59.7,30.01,SSE,150,3.0,3.0,66,0.00,,,0.00,362,Wunderground v.1.15,2013-05-08 23:23:00,
2013-05-08 18:32:00,72.1,58.8,30.01,SE,136,3.0,5.0,63,0.00,,,0.00,207,Wunderground v.1.15,2013-05-08 23:32:00,
2013-05-08 18:38:00,72.1,59.2,30.01,SSE,166,4.0,4.0,64,0.00,,,0.00,206,Wunderground v.1.15,2013-05-08 23:38:00,
2013-05-08 18:48:00,72.0,58.7,30.00,SSE,148,4.0,5.0,63,0.00,,,0.00,255,Wunderground v.1.15,2013-05-08 23:48:00,
2013-05-08 18:58:00,72.2,58.9,30.00,SE,138,5.0,5.0,63,0.00,,,0.00,200,Wunderground v.1.15,2013-05-08 23:58:00,
2013-05-08 19:03:00,72.2,58.9,30.00,SE,138,4.0,5.0,63,0.00,,,0.00,176,Wunderground v.1.15,2013-05-09 00:03:00,
2013-05-08 19:12:00,72.1,58.4,30.00,SE,142,3.0,4.0,62,0.00,,,0.00,121,Wunderground v.1.15,2013-05-09 00:12:00,
2013-05-08 19:18:00,71.9,57.7,30.00,SE,141,3.0,3.0,61,0.00,,,0.00,97,Wunderground v.1.15,2013-05-09 00:18:00,
2013-05-08 19:27:00,71.5,58.2,30.00,SE,144,3.0,3.0,63,0.00,,,0.00,79,Wunderground v.1.15,2013-05-09 00:27:00,
2013-05-08 19:33:00,71.0,57.8,30.00,SE,133,3.0,3.0,63,0.00,,,0.00,32,Wunderground v.1.15,2013-05-09 00:33:00,
2013-05-08 19:43:00,70.4,58.1,30.00,SE,138,3.0,4.0,65,0.00,,,0.00,26,Wunderground v.1.15,2013-05-09 00:43:00,
2013-05-08 19:52:00,69.9,57.6,30.00,SE,133,3.0,5.0,65,0.00,,,0.00,21,Wunderground v.1.15,2013-05-09 00:52:00,
2013-05-08 20:02:00,69.2,57.8,29.99,SE,135,1.0,2.0,67,0.00,,,0.00,12,Wunderground v.1.15,2013-05-09 01:02:00,
2013-05-08 20:12:00,69.0,57.6,30.00,SE,131,2.0,4.0,67,0.00,,,0.00,0,Wunderground v.1.15,2013-05-09 01:12:00,
2013-05-08 20:22:00,69.2,57.4,30.00,SE,132,2.0,2.0,66,0.00,,,0.00,0,Wunderground v.1.15,2013-05-09 01:22:00,
2013-05-08 20:32:00,68.8,57.4,30.00,SE,132,1.0,1.0,67,0.00,,,0.00,0,Wunderground v.1.15,2013-05-09 01:32:00,
2013-05-08 20:37:00,68.6,57.2,30.00,SE,132,1.0,1.0,67,0.00,,,0.00,0,Wunderground v.1.15,2013-05-09 01:37:00,
2013-05-08 20:42:00,68.2,57.2,30.00,SE,132,1.0,1.0,68,0.00,,,0.00,0,Wunderground v.1.15,2013-05-09 01:42:00,
2013-05-08 20:52:00,67.7,57.2,30.00,SE,129,1.0,2.0,69,0.00,,,0.00,0,Wunderground v.1.15,2013-05-09 01:52:00,
2013-05-08 21:02:00,67.7,57.2,30.00,SE,132,1.0,4.0,69,0.00,,,0.00,0,Wunderground v.1.15,2013-05-09 02:02:00,
2013-05-08 21:12:00,67.7,57.2,30.00,SE,138,3.0,5.0,69,0.00,,,0.00,0,Wunderground v.1.15,2013-05-09 02:12:00,
2013-05-08 21:22:00,67.6,57.1,30.00,SE,140,3.0,3.0,69,0.00,,,0.00,0,Wunderground v.1.15,2013-05-09 02:22:00,
2013-05-08 21:27:00,67.5,57.0,30.00,SE,140,3.0,3.0,69,0.00,,,0.00,0,Wunderground v.1.15,2013-05-09 02:27:00,
2013-05-08 21:37:00,67.3,57.2,30.00,SE,139,3.0,3.0,70,0.00,,,0.00,0,Wunderground v.1.15,2013-05-09 02:37:00,
2013-05-08 21:47:00,66.9,57.2,30.00,SE,141,2.0,2.0,71,0.00,,,0.00,0,Wunderground v.1.15,2013-05-09 02:47:00,
2013-05-08 21:52:00,66.7,57.0,30.01,SE,141,2.0,3.0,71,0.00,,,0.00,0,Wunderground v.1.15,2013-05-09 02:52:00,
2013-05-08 22:02:00,66.2,56.9,30.01,SE,144,2.0,3.0,72,0.00,,,0.00,0,Wunderground v.1.15,2013-05-09 03:02:00,
2013-05-08 22:12:00,65.7,57.2,30.01,SE,144,1.0,1.0,74,0.00,,,0.00,0,Wunderground v.1.15,2013-05-09 03:12:00,
2013-05-08 22:17:00,65.4,56.9,30.01,SE,144,1.0,1.0,74,0.00,,,0.00,0,Wunderground v.1.15,2013-05-09 03:17:00,
2013-05-08 22:23:00,65.5,57.4,30.01,SE,142,1.0,3.0,75,0.00,,,0.00,0,Wunderground v.1.15,2013-05-09 03:23:00,
2013-05-08 22:28:00,65.4,57.3,30.01,SE,141,2.0,2.0,75,0.00,,,0.00,0,Wunderground v.1.15,2013-05-09 03:28:00,
2013-05-08 22:38:00,65.6,57.5,30.01,SE,138,4.0,4.0,75,0.00,,,0.00,0,Wunderground v.1.15,2013-05-09 03:38:00,
2013-05-08 22:43:00,65.7,57.9,30.00,ESE,123,5.0,5.0,76,0.00,,,0.00,0,Wunderground v.1.15,2013-05-09 03:43:00,
2013-05-08 22:53:00,65.5,58.1,30.00,SSE,152,5.0,5.0,77,0.00,,,0.00,0,Wunderground v.1.15,2013-05-09 03:53:00,
2013-05-08 23:03:00,65.2,58.2,29.99,SSE,153,5.0,7.0,78,0.00,,,0.00,0,Wunderground v.1.15,2013-05-09 04:03:00,
2013-05-08 23:08:00,65.1,58.1,29.99,SE,144,6.0,6.0,78,0.00,,,0.00,0,Wunderground v.1.15,2013-05-09 04:08:00,
2013-05-08 23:13:00,65.0,58.3,29.99,SE,141,5.0,6.0,79,0.00,,,0.00,0,Wunderground v.1.15,2013-05-09 04:13:00,
2013-05-08 23:18:00,64.9,58.2,29.99,South,190,5.0,5.0,79,0.00,,,0.00,0,Wunderground v.1.15,2013-05-09 04:18:00,
2013-05-08 23:28:00,64.9,58.6,29.99,SE,140,4.0,4.0,80,0.00,,,0.00,0,Wunderground v.1.15,2013-05-09 04:28:00,
2013-05-08 23:38:00,64.8,58.5,29.99,SSE,161,4.0,4.0,80,0.00,,,0.00,0,Wunderground v.1.15,2013-05-09 04:38:00,
2013-05-08 23:43:00,64.7,58.4,29.99,SSE,147,3.0,4.0,80,0.00,,,0.00,0,Wunderground v.1.15,2013-05-09 04:43:00,
2013-05-08 23:48:00,64.8,58.5,29.99,SSE,154,3.0,4.0,80,0.00,,,0.00,0,Wunderground v.1.15,2013-05-09 04:48:00,
2013-05-08 23:53:00,64.8,58.5,29.99,SSE,152,4.0,7.0,80,0.00,,,0.00,0,Wunderground v.1.15,2013-05-09 04:53:00,